Time;durP1;ratioP1;P1;durP2;ratioP2;P2;SDS_P1;SDS_P2;PMS_P1;PMS_P2;Temp;Humidity;BMP_temperature;BMP_pressure;BME280_temperature;BME280_humidity;BME280_pressure;Samples;Min_cycle;Max_cycle;Signal;HPM_P1;HPM_P2
2021/11/01 00:01:25;;;;;;;5.82;4.30;;;13.60;3.20;;;;;;5074328;28;20052;-69
2021/11/01 00:03:54;;;;;;;6.05;4.28;;;13.60;3.20;;;;;;5077730;28;20044;-69
2021/11/01 00:06:29;;;;;;;6.25;4.35;;;13.70;2.80;;;;;;5078441;28;20037;-70
2021/11/01 00:08:59;;;;;;;4.65;3.63;;;13.60;2.90;;;;;;5079485;28;20118;-69
2021/11/01 00:11:32;;;;;;;6.78;4.40;;;13.70;2.80;;;;;;5075674;28;20047;-69
2021/11/01 00:14:03;;;;;;;5.95;4.47;;;13.60;2.80;;;;;;5078013;28;20048;-70
2021/11/01 00:16:31;;;;;;;7.15;4.90;;;13.60;3.20;;;;;;5073593;28;20129;-69
2021/11/01 00:19:00;;;;;;;5.47;4.50;;;13.50;3.30;;;;;;5081908;28;20483;-70
2021/11/01 00:21:28;;;;;;;6.05;4.05;;;13.50;3.70;;;;;;5076691;28;20302;-70
2021/11/01 00:24:01;;;;;;;6.07;4.72;;;13.50;4.00;;;;;;5080893;28;20041;-70
2021/11/01 00:26:29;;;;;;;6.93;5.20;;;13.40;4.10;;;;;;5061315;28;20051;-69
2021/11/01 00:29:02;;;;;;;7.60;4.80;;;13.40;3.90;;;;;;5078093;28;20118;-70
2021/11/01 00:31:31;;;;;;;7.20;4.78;;;13.40;4.00;;;;;;5077411;28;20519;-69
2021/11/01 00:34:03;;;;;;;8.48;4.85;;;13.40;4.30;;;;;;5087027;28;20075;-68
2021/11/01 00:36:32;;;;;;;5.95;4.25;;;13.40;4.30;;;;;;5074818;28;21134;-69
2021/11/01 00:39:00;;;;;;;5.57;4.13;;;13.40;4.60;;;;;;5078099;28;20407;-69
2021/11/01 00:41:30;;;;;;;7.25;4.50;;;13.50;4.90;;;;;;5080220;28;20048;-70
2021/11/01 00:44:03;;;;;;;6.07;4.47;;;13.50;5.10;;;;;;5079033;28;20499;-70
2021/11/01 00:46:32;;;;;;;6.28;4.50;;;13.50;5.20;;;;;;5076593;28;20132;-69
2021/11/01 00:49:00;;;;;;;6.28;4.10;;;13.50;5.00;;;;;;5076937;28;20561;-69
2021/11/01 00:51:29;;;;;;;5.50;4.60;;;13.50;5.20;;;;;;5071770;28;20064;-69
2021/11/01 00:53:57;;;;;;;6.90;4.68;;;13.50;4.90;;;;;;5082907;28;20050;-69
2021/11/01 00:56:30;;;;;;;7.22;3.95;;;13.60;4.80;;;;;;5074843;28;20040;-70
2021/11/01 00:58:58;;;;;;;7.78;4.78;;;13.60;4.70;;;;;;5076602;28;20171;-70
2021/11/01 01:01:28;;;;;;;5.75;4.20;;;13.60;4.80;;;;;;5077157;28;20040;-69
2021/11/01 01:03:57;;;;;;;4.72;3.67;;;13.60;5.10;;;;;;5077214;28;20095;-69
2021/11/01 01:06:27;;;;;;;4.20;2.40;;;13.70;6.60;;;;;;5075749;28;20047;-70
2021/11/01 01:08:57;;;;;;;4.07;2.30;;;14.00;7.40;;;;;;5079425;28;20071;-69
2021/11/01 01:11:26;;;;;;;4.45;3.20;;;14.10;7.40;;;;;;5072968;28;20056;-69
2021/11/01 01:13:57;;;;;;;2.22;1.60;;;14.30;8.00;;;;;;5081312;28;20052;-69
2021/11/01 01:16:26;;;;;;;2.35;1.60;;;14.40;9.40;;;;;;5078409;28;20040;-70
2021/11/01 01:18:58;;;;;;;2.17;1.70;;;14.50;9.80;;;;;;5076986;28;20056;-70
2021/11/01 01:24:17;;;;;;;2.58;1.38;;;14.80;11.10;;;;;;5078020;28;20055;-69
2021/11/01 01:26:45;;;;;;;15.38;1.63;;;15.10;11.30;;;;;;5078076;28;20097;-69
2021/11/01 01:29:13;;;;;;;2.00;1.27;;;15.10;10.90;;;;;;5082537;28;20094;-69
2021/11/01 01:31:42;;;;;;;2.15;1.60;;;15.00;9.70;;;;;;5079010;28;20052;-70
2021/11/01 01:34:14;;;;;;;2.80;1.67;;;14.90;9.00;;;;;;5077847;28;20098;-69
2021/11/01 01:36:42;;;;;;;2.75;1.23;;;14.80;9.40;;;;;;5085441;28;20047;-70
2021/11/01 01:39:10;;;;;;;3.28;1.40;;;14.60;10.20;;;;;;5079897;28;20133;-69
2021/11/01 01:41:44;;;;;;;3.47;1.70;;;14.40;11.70;;;;;;5076515;28;20048;-69
2021/11/01 01:44:13;;;;;;;;;;;14.30;13.80;;;;;;5086833;28;20044;-71
2021/11/01 01:46:41;;;;;;;5.75;1.00;;;14.00;14.20;;;;;;5078121;28;19927;-69
2021/11/01 01:49:10;;;;;;;2.95;1.02;;;13.90;14.10;;;;;;5083978;28;20043;-68
2021/11/01 01:51:40;;;;;;;2.50;0.93;;;13.80;14.00;;;;;;5079886;28;20045;-70
2021/11/01 01:54:08;;;;;;;2.22;0.85;;;13.60;13.90;;;;;;5078092;28;20047;-69
2021/11/01 01:56:36;;;;;;;3.75;0.95;;;13.50;14.20;;;;;;5081917;28;20170;-70
2021/11/01 01:59:22;;;;;;;2.58;1.27;;;13.50;14.50;;;;;;5080958;28;20060;-69
2021/11/01 02:01:54;;;;;;;2.20;0.82;;;13.40;15.30;;;;;;5076114;28;20430;-69
2021/11/01 02:04:25;;;;;;;3.13;0.85;;;13.30;16.20;;;;;;5082219;28;20107;-68
2021/11/01 02:07:16;;;;;;;1.98;0.70;;;13.20;17.20;;;;;;5084854;28;20075;-68
2021/11/01 02:09:57;;;;;;;2.97;1.20;;;13.20;17.70;;;;;;5078052;28;20090;-68
2021/11/01 02:12:31;;;;;;;3.70;0.95;;;13.20;18.30;;;;;;5079944;28;20122;-69
2021/11/01 02:15:06;;;;;;;2.45;0.80;;;13.10;19.40;;;;;;5083751;28;20044;-69
2021/11/01 02:17:41;;;;;;;2.38;1.00;;;13.00;20.20;;;;;;5077851;28;20048;-70
2021/11/01 02:20:13;;;;;;;2.53;0.93;;;13.00;20.20;;;;;;5077511;28;20106;-69
2021/11/01 02:22:56;;;;;;;3.30;1.30;;;13.00;20.70;;;;;;5079487;28;20487;-70
2021/11/01 02:25:39;;;;;;;3.92;1.38;;;12.90;20.50;;;;;;5077640;28;20051;-69
2021/11/01 02:28:15;;;;;;;1.27;0.63;;;12.90;19.70;;;;;;5078887;28;20351;-69
2021/11/01 02:30:44;;;;;;;3.25;1.45;;;13.00;18.90;;;;;;5080486;28;20052;-69
2021/11/01 02:33:14;;;;;;;2.30;0.73;;;12.90;17.00;;;;;;5075062;28;20064;-71
2021/11/01 02:35:44;;;;;;;1.45;0.70;;;12.80;15.50;;;;;;5084278;28;20044;-69
2021/11/01 02:38:19;;;;;;;3.97;0.80;;;12.80;16.00;;;;;;5081332;28;20491;-69
2021/11/01 02:40:49;;;;;;;3.33;0.80;;;12.70;15.50;;;;;;5076280;28;20044;-69
2021/11/01 02:43:19;;;;;;;4.05;0.90;;;12.70;16.90;;;;;;5084059;28;20600;-69
2021/11/01 02:45:46;;;;;;;5.43;1.00;;;12.50;16.20;;;;;;5077811;28;20050;-69
2021/11/01 02:48:15;;;;;;;2.65;0.68;;;12.40;15.70;;;;;;5079427;28;20047;-69
2021/11/01 02:50:45;;;;;;;1.58;0.63;;;12.20;16.50;;;;;;5071322;28;20256;-69
2021/11/01 02:53:13;;;;;;;5.03;0.93;;;12.10;19.50;;;;;;5083398;28;20046;-69
2021/11/01 02:55:46;;;;;;;2.95;0.85;;;12.00;21.70;;;;;;5079503;28;20048;-69
2021/11/01 02:58:15;;;;;;;2.08;0.70;;;11.80;23.90;;;;;;5084207;28;20143;-69
2021/11/01 03:00:43;;;;;;;6.07;1.45;;;11.70;25.40;;;;;;5079525;28;20054;-69
2021/11/01 03:03:11;;;;;;;1.33;0.52;;;11.70;26.00;;;;;;5079724;27;20068;-67
2021/11/01 03:05:41;;;;;;;3.08;0.80;;;11.60;26.60;;;;;;5087181;28;20081;-68
2021/11/01 03:08:13;;;;;;;3.40;0.88;;;11.50;27.20;;;;;;5080678;28;20218;-69
2021/11/01 03:10:45;;;;;;;1.73;0.82;;;11.50;28.10;;;;;;5075354;28;20067;-69
2021/11/01 03:13:15;;;;;;;4.03;0.90;;;11.40;28.10;;;;;;5084876;28;20185;-69
2021/11/01 03:15:46;;;;;;;3.72;0.90;;;11.30;29.80;;;;;;5078325;28;20040;-69
2021/11/01 03:18:14;;;;;;;2.50;0.60;;;11.30;32.20;;;;;;5076789;28;20044;-70
2021/11/01 03:20:47;;;;;;;3.58;0.60;;;11.20;33.50;;;;;;5081007;28;20048;-69
2021/11/01 03:23:20;;;;;;;4.75;1.13;;;11.30;35.40;;;;;;5073594;28;20080;-69
2021/11/01 03:25:52;;;;;;;2.92;0.98;;;11.30;34.70;;;;;;5082290;28;20047;-69
2021/11/01 03:28:23;;;;;;;3.55;1.13;;;11.20;36.00;;;;;;5080942;28;20135;-69
2021/11/01 03:30:55;;;;;;;6.18;1.00;;;11.10;36.30;;;;;;5077202;28;20122;-69
2021/11/01 03:33:29;;;;;;;5.45;0.90;;;11.00;35.10;;;;;;5082660;28;20083;-69
2021/11/01 03:35:58;;;;;;;4.65;0.88;;;11.00;36.10;;;;;;5083562;28;20475;-70
2021/11/01 03:38:27;;;;;;;5.15;1.13;;;10.80;34.10;;;;;;5075176;28;20994;-69
2021/11/01 03:40:58;;;;;;;4.53;1.17;;;10.90;37.20;;;;;;5082061;28;20036;-70
2021/11/01 03:43:34;;;;;;;3.30;1.00;;;10.80;37.20;;;;;;5080616;28;20041;-70
2021/11/01 03:46:04;;;;;;;3.70;1.00;;;10.70;38.10;;;;;;5076030;28;20075;-69
2021/11/01 03:48:36;;;;;;;4.97;0.80;;;10.60;37.60;;;;;;5059965;28;20056;-69
2021/11/01 03:51:11;;;;;;;2.83;0.82;;;10.60;40.90;;;;;;5081688;28;20059;-70
2021/11/01 03:53:40;;;;;;;7.53;1.55;;;10.60;42.90;;;;;;5075021;28;20058;-69
2021/11/01 03:56:10;;;;;;;4.95;1.45;;;10.50;42.50;;;;;;5078438;28;20534;-69
2021/11/01 03:58:40;;;;;;;3.25;0.93;;;10.60;43.00;;;;;;5076349;28;20041;-70
2021/11/01 04:01:09;;;;;;;4.15;0.80;;;10.50;43.20;;;;;;5073114;28;20082;-69
2021/11/01 04:03:37;;;;;;;4.32;1.25;;;10.40;43.20;;;;;;5081649;28;20071;-69
2021/11/01 04:06:07;;;;;;;4.65;0.90;;;10.40;44.90;;;;;;5083551;28;20568;-67
2021/11/01 04:08:36;;;;;;;2.72;0.93;;;10.50;46.60;;;;;;5075974;28;20044;-67
2021/11/01 04:11:04;;;;;;;3.58;0.90;;;10.50;47.80;;;;;;5080448;28;20050;-68
2021/11/01 04:13:34;;;;;;;5.00;0.98;;;10.50;49.60;;;;;;5077259;28;20093;-68
2021/11/01 04:16:10;;;;;;;4.95;0.90;;;10.50;49.80;;;;;;5079175;28;20091;-68
2021/11/01 04:18:53;;;;;;;2.20;0.73;;;10.50;50.10;;;;;;5078184;28;20064;-68
2021/11/01 04:21:22;;;;;;;3.58;1.02;;;10.50;50.70;;;;;;5079031;28;20100;-68
2021/11/01 04:23:50;;;;;;;5.80;1.20;;;10.50;52.00;;;;;;5077589;28;20056;-69
2021/11/01 04:26:20;;;;;;;6.03;1.13;;;10.50;52.30;;;;;;5082160;28;20059;-68
2021/11/01 04:28:52;;;;;;;3.38;0.90;;;10.40;51.30;;;;;;5072789;28;20040;-68
2021/11/01 04:31:25;;;;;;;4.75;0.98;;;10.40;51.60;;;;;;5079114;28;20716;-68
2021/11/01 04:33:57;;;;;;;4.55;1.02;;;10.50;53.00;;;;;;5078023;28;20072;-68
2021/11/01 04:36:28;;;;;;;3.30;1.20;;;10.50;53.70;;;;;;5070926;28;20052;-69
2021/11/01 04:39:03;;;;;;;3.40;1.10;;;10.50;53.90;;;;;;5077197;28;20036;-69
2021/11/01 04:41:39;;;;;;;3.03;0.80;;;10.50;54.60;;;;;;5079545;28;20406;-69
2021/11/01 04:55:15;;;;;;;6.15;1.17;;;10.20;57.00;;;;;;5077712;28;20443;-69
2021/11/01 04:57:44;;;;;;;9.25;1.50;;;10.20;56.60;;;;;;5083644;28;20083;-68
2021/11/01 05:00:14;;;;;;;4.50;0.85;;;10.30;57.70;;;;;;5078151;28;20118;-71
2021/11/01 05:02:47;;;;;;;5.75;1.35;;;10.30;57.70;;;;;;5078762;28;20918;-68
2021/11/01 05:05:18;;;;;;;3.03;1.02;;;10.30;57.70;;;;;;5086066;28;20085;-69
2021/11/01 05:07:46;;;;;;;2.15;1.60;;;10.20;57.60;;;;;;5075852;28;20421;-68
2021/11/01 05:10:23;;;;;;;3.95;1.83;;;10.20;58.40;;;;;;5083070;28;20135;-69
2021/11/01 05:12:51;;;;;;;5.55;1.20;;;10.20;58.80;;;;;;5083997;28;20297;-69
2021/11/01 05:15:29;;;;;;;4.10;1.27;;;10.30;59.00;;;;;;5080902;28;20935;-69
2021/11/01 05:18:14;;;;;;;6.07;1.30;;;10.30;58.80;;;;;;5083015;28;20092;-68
2021/11/01 05:20:48;;;;;;;4.40;1.60;;;10.30;59.20;;;;;;5080743;28;20094;-68
2021/11/01 05:23:28;;;;;;;10.00;1.33;;;10.30;59.40;;;;;;5080174;28;20457;-68
2021/11/01 05:25:59;;;;;;;6.28;1.20;;;10.30;58.80;;;;;;5083373;28;20064;-68
2021/11/01 05:28:40;;;;;;;3.17;1.40;;;10.30;59.30;;;;;;5087134;28;20063;-68
2021/11/01 05:31:15;;;;;;;2.53;1.02;;;10.40;59.50;;;;;;5083069;28;20045;-68
2021/11/01 05:33:54;;;;;;;6.97;1.33;;;10.30;59.00;;;;;;5083577;28;20033;-68
2021/11/01 05:36:25;;;;;;;3.17;1.00;;;10.20;59.40;;;;;;5084495;28;20046;-69
2021/11/01 05:38:55;;;;;;;2.88;0.90;;;10.30;60.10;;;;;;5075690;28;20051;-69
2021/11/01 05:41:24;;;;;;;4.50;1.33;;;10.30;59.60;;;;;;5082945;28;20499;-69
2021/11/01 05:43:52;;;;;;;6.28;1.52;;;10.30;60.00;;;;;;5082675;28;20052;-69
2021/11/01 05:46:23;;;;;;;5.40;1.13;;;10.30;60.30;;;;;;5077558;28;20036;-68
2021/11/01 05:48:54;;;;;;;3.35;1.10;;;10.30;60.30;;;;;;5082235;28;20467;-68
2021/11/01 05:51:23;;;;;;;8.90;1.83;;;10.30;60.60;;;;;;5081274;28;20075;-68
2021/11/01 05:53:54;;;;;;;2.25;1.33;;;10.30;60.90;;;;;;5078488;28;20106;-68
2021/11/01 05:56:30;;;;;;;4.47;1.60;;;10.30;60.90;;;;;;5084309;28;20119;-68
2021/11/01 05:59:20;;;;;;;4.38;1.45;;;10.30;61.10;;;;;;5087921;28;20037;-68
2021/11/01 06:04:58;;;;;;;3.08;1.23;;;10.30;61.10;;;;;;5010258;28;20042;-68
2021/11/01 06:07:39;;;;;;;4.45;1.60;;;10.30;61.40;;;;;;5009117;28;20489;-68
2021/11/01 06:10:11;;;;;;;3.92;1.20;;;10.30;61.70;;;;;;5049404;28;20044;-69
2021/11/01 06:15:28;;;;;;;3.83;1.20;;;10.30;61.80;;;;;;5079039;28;20508;-69
2021/11/01 06:18:00;;;;;;;4.00;1.35;;;10.20;61.60;;;;;;5079957;28;20498;-68
2021/11/01 06:20:29;;;;;;;6.15;1.45;;;10.20;61.70;;;;;;5081777;28;20483;-69
2021/11/01 06:22:58;;;;;;;5.28;1.65;;;10.20;61.80;;;;;;5085567;28;20043;-68
2021/11/01 06:25:29;;;;;;;2.50;1.33;;;10.20;61.90;;;;;;5081901;28;20105;-69
2021/11/01 06:28:02;;;;;;;5.13;1.75;;;10.20;61.90;;;;;;5081924;28;20410;-69
2021/11/01 06:30:33;;;;;;;5.45;1.63;;;10.20;61.70;;;;;;5079190;28;20123;-69
2021/11/01 06:33:23;;;;;;;3.85;1.45;;;10.20;61.90;;;;;;5080594;28;20123;-68
2021/11/01 06:41:48;;;;;;;3.45;1.08;;;10.20;61.70;;;;;;5037293;28;20048;-68
2021/11/01 06:44:25;;;;;;;3.80;1.30;;;10.20;61.20;;;;;;5037934;28;20061;-69
2021/11/01 06:49:57;;;;;;;2.22;0.95;;;10.10;60.10;;;;;;5078551;28;20076;-68
2021/11/01 06:58:14;;;;;;;2.63;1.05;;;10.10;59.20;;;;;;5056204;28;20123;-68
2021/11/01 07:15:05;;;;;;;8.38;1.38;;;10.10;57.60;;;;;;5076939;28;20818;-68
2021/11/01 07:17:40;;;;;;;6.87;2.07;;;10.00;57.00;;;;;;5078362;28;20071;-68
2021/11/01 07:20:25;;;;;;;4.38;1.33;;;10.00;57.40;;;;;;5078944;28;20294;-68
2021/11/01 07:23:34;;;;;;;3.72;1.00;;;10.10;57.50;;;;;;5081127;28;20131;-68
2021/11/01 08:22:05;;;;;;;2.40;1.00;;;10.00;49.50;;;;;;5072331;28;20123;-69
2021/11/01 08:36:24;;;;;;;4.78;1.08;;;10.00;45.40;;;;;;5079781;28;20051;-69
2021/11/01 08:44:52;;;;;;;2.78;1.30;;;10.00;49.50;;;;;;5082380;28;20048;-69
2021/11/01 08:47:41;;;;;;;2.55;1.10;;;10.00;51.00;;;;;;5081600;28;20395;-69
2021/11/01 09:01:49;;;;;;;4.72;1.15;;;10.00;51.30;;;;;;5023908;28;20072;-69
2021/11/01 09:04:34;;;;;;;2.25;0.90;;;10.10;50.80;;;;;;5069767;28;20062;-69
2021/11/01 09:07:20;;;;;;;5.10;1.40;;;10.00;49.60;;;;;;5082670;28;20127;-69
2021/11/01 09:10:13;;;;;;;2.95;1.00;;;10.10;50.20;;;;;;5080663;28;20055;-69
2021/11/01 09:24:29;;;;;;;;;;;10.40;51.20;;;;;;5082697;28;20249;-69
2021/11/01 09:27:04;;;;;;;4.05;1.33;;;10.30;49.30;;;;;;5086533;28;19969;-69
2021/11/01 09:29:47;;;;;;;3.38;1.55;;;10.30;50.30;;;;;;5082554;28;20056;-69
2021/11/01 09:38:11;;;;;;;2.40;1.00;;;10.50;51.80;;;;;;5084919;28;20117;-68
2021/11/01 09:43:38;;;;;;;2.50;1.00;;;10.60;49.80;;;;;;5026641;28;20129;-69
2021/11/01 09:46:10;;;;;;;3.53;1.38;;;10.60;49.20;;;;;;5069843;28;20120;-69
2021/11/01 09:48:39;;;;;;;1.95;0.90;;;10.70;48.00;;;;;;5077618;28;20141;-69
2021/11/01 09:51:12;;;;;;;2.45;0.85;;;10.70;47.90;;;;;;5080132;28;20044;-69
2021/11/01 09:53:46;;;;;;;1.73;0.80;;;10.70;45.90;;;;;;5084585;28;20048;-69
2021/11/01 09:56:21;;;;;;;2.75;0.98;;;10.80;44.60;;;;;;5075895;28;20079;-69
2021/11/01 09:59:12;;;;;;;1.95;0.70;;;10.80;43.00;;;;;;5083156;28;20119;-68
2021/11/01 10:01:44;;;;;;;1.92;0.85;;;10.80;41.30;;;;;;5081850;28;20071;-68
2021/11/01 10:04:20;;;;;;;2.55;0.90;;;10.80;41.10;;;;;;5084284;28;20495;-68
2021/11/01 10:06:58;;;;;;;2.40;0.65;;;10.80;41.40;;;;;;5081810;28;20036;-68
2021/11/01 10:09:30;;;;;;;1.60;0.90;;;10.80;41.70;;;;;;5084827;28;20056;-68
2021/11/01 10:11:59;;;;;;;1.17;0.70;;;10.70;39.50;;;;;;5078000;28;20805;-68
2021/11/01 10:14:32;;;;;;;1.77;0.60;;;10.70;41.20;;;;;;5081187;28;20067;-68
2021/11/01 10:19:50;;;;;;;5.07;1.05;;;10.70;40.90;;;;;;5079039;28;20128;-68
2021/11/01 10:22:24;;;;;;;2.75;0.90;;;10.60;40.90;;;;;;5082988;28;20106;-68
2021/11/01 10:24:53;;;;;;;2.53;0.70;;;10.70;42.00;;;;;;5079768;28;20054;-67
2021/11/01 10:27:32;;;;;;;1.77;0.65;;;10.80;40.70;;;;;;5073472;28;20050;-67
2021/11/01 10:30:03;;;;;;;2.67;0.90;;;10.80;41.20;;;;;;5080700;28;20492;-68
2021/11/01 10:32:36;;;;;;;3.08;0.80;;;10.80;39.50;;;;;;5076841;28;20055;-67
2021/11/01 10:35:16;;;;;;;2.00;0.85;;;10.90;38.30;;;;;;5078764;28;20515;-67
2021/11/01 10:38:13;;;;;;;1.65;0.90;;;10.90;38.40;;;;;;5081323;28;20166;-67
2021/11/01 10:40:51;;;;;;;1.70;0.63;;;10.90;37.80;;;;;;5081280;28;20041;-68
2021/11/01 10:43:44;;;;;;;1.90;0.68;;;10.90;32.80;;;;;;5078138;28;20408;-68
2021/11/01 11:11:47;;;;;;;1.55;0.60;;;10.90;26.10;;;;;;5081462;28;20047;-66
2021/11/01 11:14:28;;;;;;;1.15;0.60;;;11.00;25.60;;;;;;5075940;28;20036;-67
2021/11/01 11:29:14;;;;;;;1.75;1.00;;;10.90;24.30;;;;;;5074101;28;20553;-67
2021/11/01 11:37:48;;;;;;;2.30;0.80;;;11.20;27.10;;;;;;5077291;28;20079;-68
2021/11/01 11:40:46;;;;;;;1.20;0.70;;;11.40;25.50;;;;;;5074665;28;20068;-68
2021/11/01 11:49:08;;;;;;;1.67;0.70;;;11.50;21.70;;;;;;5075671;28;20047;-68
2021/11/01 11:51:39;;;;;;;0.90;0.50;;;11.50;22.30;;;;;;5081986;28;20037;-69
2021/11/01 11:54:08;;;;;;;3.78;0.55;;;11.50;21.80;;;;;;5083388;28;20040;-67
2021/11/01 11:56:40;;;;;;;0.73;0.60;;;11.50;21.50;;;;;;5073216;28;20523;-68
2021/11/01 11:59:11;;;;;;;1.40;0.90;;;11.50;21.60;;;;;;5077964;28;20117;-68
2021/11/01 12:01:43;;;;;;;2.95;0.80;;;11.50;21.50;;;;;;5083122;28;20071;-68
2021/11/01 12:04:21;;;;;;;1.30;0.70;;;11.30;22.90;;;;;;5067284;28;21460;-68
2021/11/01 12:07:00;;;;;;;1.88;0.70;;;11.40;23.00;;;;;;5067141;28;20044;-67
2021/11/01 12:09:36;;;;;;;2.15;0.80;;;11.30;22.60;;;;;;5080145;28;20055;-67
2021/11/01 12:12:40;;;;;;;1.50;0.60;;;11.30;22.90;;;;;;5081008;28;20113;-67
2021/11/01 12:17:59;;;;;;;1.10;0.63;;;11.30;23.00;;;;;;5076341;28;20044;-68
2021/11/01 12:20:31;;;;;;;0.90;0.60;;;11.30;22.60;;;;;;5075944;28;20094;-68
2021/11/01 12:23:06;;;;;;;1.98;0.68;;;11.30;21.40;;;;;;5073881;28;20072;-68
2021/11/01 12:25:41;;;;;;;1.42;0.63;;;11.40;21.10;;;;;;5079554;28;20067;-68
2021/11/01 12:28:20;;;;;;;2.00;0.88;;;11.40;21.40;;;;;;5077111;28;20140;-68
2021/11/01 12:31:00;;;;;;;2.38;0.95;;;11.40;22.70;;;;;;5074809;28;20036;-68
2021/11/01 12:33:30;;;;;;;2.25;0.85;;;11.40;23.00;;;;;;5078454;28;20070;-68
2021/11/01 12:36:06;;;;;;;1.42;0.82;;;11.30;25.10;;;;;;5060908;28;20055;-68
2021/11/01 12:38:44;;;;;;;3.95;1.00;;;11.30;25.20;;;;;;5079060;28;20060;-69
2021/11/01 12:41:22;;;;;;;2.38;1.25;;;11.30;24.60;;;;;;5081796;28;20050;-69
2021/11/01 12:58:02;;;;;;;2.63;1.20;;;11.30;24.00;;;;;;5078480;28;20060;-69
2021/11/01 13:00:38;;;;;;;2.35;1.08;;;11.30;24.20;;;;;;5076974;28;20056;-69
2021/11/01 13:03:15;;;;;;;2.50;1.40;;;11.30;23.60;;;;;;5077970;28;20114;-69
2021/11/01 13:05:45;;;;;;;1.92;1.10;;;11.40;24.40;;;;;;5080366;28;20095;-69
2021/11/01 13:08:22;;;;;;;1.63;1.20;;;11.30;26.70;;;;;;5081027;28;20139;-68
2021/11/01 13:10:58;;;;;;;3.22;1.63;;;11.20;26.70;;;;;;5075834;28;20040;-69
2021/11/01 13:19:11;;;;;;;2.05;1.15;;;11.30;28.40;;;;;;5072011;28;20055;-69
2021/11/01 13:21:51;;;;;;;4.97;1.17;;;11.40;27.20;;;;;;5080475;28;20041;-69
2021/11/01 13:24:25;;;;;;;2.13;1.30;;;11.40;26.00;;;;;;5083016;28;20074;-69
2021/11/01 13:27:08;;;;;;;;;;;11.40;26.00;;;;;;5080924;28;20375;-68
2021/11/01 13:38:27;;;;;;;4.30;1.70;;;11.30;27.60;;;;;;5044920;28;20127;-68
2021/11/01 13:40:59;;;;;;;4.47;1.67;;;11.20;28.90;;;;;;5084553;28;20045;-68
2021/11/01 13:43:36;;;;;;;4.45;1.80;;;11.30;28.30;;;;;;5080024;28;20066;-68
2021/11/01 13:46:07;;;;;;;3.47;2.20;;;11.30;27.20;;;;;;5077301;28;20048;-68
2021/11/01 13:48:43;;;;;;;4.10;2.72;;;11.30;28.40;;;;;;5066675;28;20155;-69
2021/11/01 13:51:13;;;;;;;3.58;2.50;;;11.30;29.10;;;;;;5085381;28;20170;-68
2021/11/01 13:54:02;;;;;;;4.18;2.75;;;11.40;30.00;;;;;;5075192;28;20044;-68
2021/11/01 13:56:41;;;;;;;3.33;2.30;;;11.30;29.00;;;;;;5078878;28;20515;-69
2021/11/01 13:59:27;;;;;;;3.45;2.50;;;11.30;29.70;;;;;;5077237;28;20106;-68
2021/11/01 14:13:55;;;;;;;6.20;2.50;;;11.40;27.20;;;;;;5026391;28;20075;-68
2021/11/01 14:16:32;;;;;;;6.20;2.20;;;11.40;27.90;;;;;;5014639;28;20248;-68
2021/11/01 14:19:13;;;;;;;9.15;2.53;;;11.40;27.90;;;;;;5059166;28;20504;-67
2021/11/01 14:33:24;;;;;;;3.88;1.40;;;11.50;25.60;;;;;;5075919;28;20045;-68
2021/11/01 14:56:16;;;;;;;2.45;1.20;;;11.50;17.10;;;;;;5074757;28;20143;-68
2021/11/01 15:01:53;;;;;;;;;;;11.50;17.30;;;;;;5081227;28;20462;-69
2021/11/01 15:10:28;;;;;;;1.80;1.27;;;11.40;16.60;;;;;;5076055;28;20048;-68
2021/11/01 15:13:26;;;;;;;5.45;1.50;;;11.40;19.50;;;;;;5078888;28;20043;-69
2021/11/01 15:18:57;;;;;;;1.50;1.10;;;11.50;19.60;;;;;;5071032;28;20531;-68
2021/11/01 15:21:35;;;;;;;2.13;1.13;;;11.50;18.20;;;;;;5085744;28;21355;-69
2021/11/01 15:38:15;;;;;;;3.92;1.55;;;11.40;16.60;;;;;;5077679;28;20044;-66
2021/11/01 16:17:43;;;;;;;5.75;2.30;;;11.00;22.80;;;;;;5073752;28;20124;-67
2021/11/01 16:20:12;;;;;;;3.33;1.98;;;11.00;23.20;;;;;;5078939;28;20059;-68
2021/11/01 16:22:41;;;;;;;3.47;2.60;;;11.00;23.10;;;;;;5079082;28;20036;-69
2021/11/01 16:25:09;;;;;;;6.88;2.60;;;10.90;24.80;;;;;;5081352;28;20176;-68
2021/11/01 16:27:46;;;;;;;4.20;2.72;;;11.00;25.00;;;;;;5080951;28;20484;-68
2021/11/01 16:30:18;;;;;;;3.42;2.50;;;11.00;22.90;;;;;;5075842;28;20041;-69
2021/11/01 16:32:47;;;;;;;2.53;1.95;;;11.00;22.70;;;;;;5079227;28;20101;-68
2021/11/01 16:35:21;;;;;;;5.60;1.90;;;11.00;21.20;;;;;;5078908;28;20048;-68
2021/11/01 16:37:58;;;;;;;6.47;2.30;;;11.00;19.20;;;;;;5079141;28;20093;-68
2021/11/01 16:40:27;;;;;;;3.80;2.53;;;11.00;18.40;;;;;;5076546;28;20408;-68
2021/11/01 16:42:58;;;;;;;3.20;2.00;;;11.00;19.30;;;;;;5078745;28;20130;-68
2021/11/01 16:45:33;;;;;;;3.70;2.08;;;11.00;20.70;;;;;;5078908;28;20042;-68
2021/11/01 16:48:01;;;;;;;6.28;2.40;;;11.00;20.30;;;;;;5073399;28;20044;-68
2021/11/01 16:50:36;;;;;;;6.90;2.75;;;10.90;21.00;;;;;;5075015;28;20044;-68
2021/11/01 16:53:05;;;;;;;4.13;1.70;;;10.90;22.50;;;;;;5072883;28;20120;-69
2021/11/01 16:55:39;;;;;;;4.03;1.73;;;10.90;21.60;;;;;;5073396;28;20233;-68
2021/11/01 16:58:14;;;;;;;2.90;1.70;;;10.90;21.30;;;;;;5077446;28;20568;-68
2021/11/01 17:00:55;;;;;;;2.78;1.75;;;10.90;20.80;;;;;;5075101;28;20064;-68
2021/11/01 17:03:35;;;;;;;3.50;2.30;;;10.80;21.30;;;;;;5080342;28;20062;-68
2021/11/01 17:06:12;;;;;;;5.50;2.40;;;10.80;21.50;;;;;;5077839;28;20044;-68
2021/11/01 17:22:42;;;;;;;3.58;2.33;;;10.50;26.40;;;;;;5078113;28;20047;-69
2021/11/01 17:25:18;;;;;;;4.47;2.05;;;10.40;26.40;;;;;;5087714;28;20048;-68
2021/11/01 17:31:13;;;;;;;3.67;2.25;;;10.40;25.90;;;;;;5079143;28;20094;-69
2021/11/01 17:36:53;;;;;;;4.45;2.40;;;10.40;25.80;;;;;;5078992;28;20147;-68
2021/11/01 18:41:40;;;;;;;16.20;5.55;;;9.70;38.20;;;;;;5098749;28;20048;-67
2021/11/01 18:52:43;;;;;;;8.52;4.63;;;9.80;38.50;;;;;;5113181;28;20521;-69
2021/11/01 18:55:14;;;;;;;5.65;4.57;;;9.80;37.90;;;;;;5100644;28;20054;-68
2021/11/01 18:57:49;;;;;;;5.50;3.80;;;9.70;37.70;;;;;;5116803;27;20074;-69
2021/11/01 19:00:19;;;;;;;6.40;4.15;;;9.70;37.70;;;;;;5119078;28;20495;-69
2021/11/01 19:02:49;;;;;;;6.95;4.20;;;9.60;37.70;;;;;;5115758;28;20043;-68
2021/11/01 19:05:29;;;;;;;5.85;4.18;;;9.50;37.60;;;;;;5115010;27;20497;-68
2021/11/01 19:08:04;;;;;;;;;;;9.50;37.60;;;;;;5112102;28;20044;-69
2021/11/01 20:04:23;;;;;;;2.20;1.85;;;8.80;26.70;;;;;;5085616;28;20056;-68
2021/11/01 20:12:59;;;;;;;4.00;2.00;;;8.60;29.60;;;;;;5064001;28;19920;-68
2021/11/01 21:25:59;;;;;;;2.88;1.75;;;7.80;31.10;;;;;;5101201;28;20058;-69
2021/11/01 21:28:27;;;;;;;3.47;1.55;;;7.80;30.80;;;;;;5099305;28;20044;-69
2021/11/01 21:31:01;;;;;;;3.00;2.10;;;7.80;30.80;;;;;;5101741;28;20047;-69
2021/11/01 21:33:31;;;;;;;3.25;1.40;;;7.80;30.90;;;;;;5101945;28;20059;-68
2021/11/01 21:36:04;;;;;;;2.90;1.67;;;7.70;30.70;;;;;;5103808;28;20063;-69
2021/11/01 21:38:33;;;;;;;3.47;2.00;;;7.70;31.20;;;;;;5105303;27;20105;-68
2021/11/01 21:41:04;;;;;;;2.35;1.73;;;7.80;30.80;;;;;;5067169;28;20059;-69
2021/11/01 21:43:37;;;;;;;1.92;1.33;;;7.70;30.80;;;;;;5098468;28;20134;-67
2021/11/01 21:46:09;;;;;;;2.67;1.77;;;7.80;31.00;;;;;;5102171;28;20046;-69
2021/11/01 21:48:40;;;;;;;3.08;1.85;;;7.80;30.30;;;;;;5083254;28;20042;-68
2021/11/01 21:51:08;;;;;;;5.25;1.60;;;7.80;30.50;;;;;;5097526;28;20040;-69
2021/11/01 21:53:37;;;;;;;2.90;1.30;;;7.70;30.60;;;;;;5101987;27;20047;-68
2021/11/01 21:56:10;;;;;;;2.53;1.40;;;7.70;30.90;;;;;;5098903;27;20040;-68
2021/11/01 21:58:56;;;;;;;1.88;1.27;;;7.70;31.70;;;;;;5101497;28;20536;-68
2021/11/01 22:01:40;;;;;;;2.65;1.75;;;7.60;32.70;;;;;;5097928;28;20794;-68
2021/11/01 22:18:25;;;;;;;3.45;1.70;;;7.20;37.50;;;;;;5028142;28;20056;-69
2021/11/01 22:20:57;;;;;;;3.00;1.75;;;7.20;37.90;;;;;;5009665;28;20059;-69
2021/11/01 22:23:33;;;;;;;3.38;1.77;;;7.10;38.10;;;;;;5056943;28;20039;-69
2021/11/01 22:26:08;;;;;;;3.80;2.17;;;7.20;38.30;;;;;;5085250;28;20044;-68
2021/11/01 22:34:18;;;;;;;3.92;2.30;;;7.20;38.70;;;;;;5063565;28;20066;-68
2021/11/01 22:39:46;;;;;;;4.95;2.40;;;7.10;39.50;;;;;;5070232;28;20048;-69
2021/11/01 22:42:33;;;;;;;3.90;2.17;;;7.10;39.90;;;;;;5090746;28;20560;-68
2021/11/01 22:45:12;;;;;;;2.45;2.22;;;7.20;40.30;;;;;;5072959;28;20084;-69
2021/11/01 22:56:16;;;;;;;3.00;1.90;;;7.10;40.20;;;;;;5081740;28;20131;-68
2021/11/01 22:58:44;;;;;;;3.72;2.03;;;7.10;40.80;;;;;;5074290;28;20135;-68
2021/11/01 23:01:20;;;;;;;4.22;2.10;;;7.10;40.70;;;;;;5061690;28;20520;-67
2021/11/01 23:04:09;;;;;;;2.63;1.77;;;7.10;41.20;;;;;;5066365;28;20078;-68
2021/11/01 23:06:57;;;;;;;4.25;1.77;;;7.20;41.70;;;;;;5063186;28;20048;-69
2021/11/01 23:31:48;;;;;;;2.63;1.88;;;7.50;41.70;;;;;;5064131;28;20143;-68
2021/11/01 23:34:19;;;;;;;3.92;1.98;;;7.50;41.10;;;;;;5073555;28;20127;-68
2021/11/01 23:36:47;;;;;;;4.75;2.47;;;7.60;40.30;;;;;;5071428;28;20341;-68
2021/11/01 23:39:17;;;;;;;3.03;1.90;;;7.60;39.00;;;;;;5070132;28;20071;-68
2021/11/01 23:41:48;;;;;;;2.95;1.80;;;7.70;38.70;;;;;;5063562;28;20074;-68
2021/11/01 23:44:20;;;;;;;4.05;2.45;;;7.70;38.20;;;;;;5070563;28;20127;-68